createdAt,value
2024-05-09T00:00:41.354Z,19.96
2024-05-09T00:01:41.455Z,19.94
2024-05-09T00:02:42.352Z,19.95
2024-05-09T00:03:43.586Z,19.95
2024-05-09T00:04:44.452Z,19.97
2024-05-09T00:05:45.425Z,19.96
2024-05-09T00:06:46.356Z,19.96
2024-05-09T00:07:47.375Z,19.96
2024-05-09T00:08:48.342Z,19.96
2024-05-09T00:09:49.334Z,19.95
2024-05-09T00:10:50.472Z,19.96
2024-05-09T00:11:52.461Z,19.97
2024-05-09T00:12:53.373Z,19.96
2024-05-09T00:13:54.402Z,19.96
2024-05-09T00:14:55.342Z,19.96
2024-05-09T00:15:56.393Z,19.95
2024-05-09T00:16:57.419Z,19.96
2024-05-09T00:17:58.690Z,19.94
2024-05-09T00:18:59.497Z,19.95
2024-05-09T00:20:00.480Z,19.95
2024-05-09T00:21:01.546Z,19.96
2024-05-09T00:22:02.370Z,19.95
2024-05-09T00:23:03.431Z,19.95
2024-05-09T00:24:04.364Z,19.95
2024-05-09T00:25:05.384Z,19.95
2024-05-09T00:26:06.333Z,19.95
2024-05-09T00:27:08.407Z,19.94
2024-05-09T00:28:08.382Z,19.95
2024-05-09T00:29:09.546Z,19.96
2024-05-09T00:30:17.420Z,19.95
2024-05-09T00:31:11.359Z,19.95
2024-05-09T00:32:12.398Z,19.94
2024-05-09T00:33:13.666Z,19.94
2024-05-09T00:34:14.382Z,19.94
2024-05-09T00:35:15.408Z,19.94
2024-05-09T00:36:16.380Z,19.95
2024-05-09T00:37:17.344Z,19.94
2024-05-09T00:38:18.437Z,19.94
2024-05-09T00:39:19.374Z,19.92
2024-05-09T00:40:30.758Z,19.95
2024-05-09T00:41:21.430Z,19.94
2024-05-09T00:42:22.369Z,19.93
2024-05-09T00:43:23.373Z,19.93
2024-05-09T00:44:24.436Z,19.94
2024-05-09T00:45:25.356Z,19.94
2024-05-09T00:46:26.378Z,19.94
2024-05-09T00:47:27.512Z,19.94
2024-05-09T00:48:28.498Z,19.95
2024-05-09T00:49:29.564Z,19.94
2024-05-09T00:50:36.115Z,19.94
2024-05-09T00:51:31.326Z,19.94
2024-05-09T00:52:32.473Z,19.93
2024-05-09T00:53:33.555Z,19.93
2024-05-09T00:54:34.322Z,19.93
2024-05-09T00:55:35.566Z,19.92
2024-05-09T00:56:36.377Z,19.93
2024-05-09T00:57:37.364Z,19.93
2024-05-09T00:58:38.333Z,19.92
2024-05-09T00:59:39.469Z,19.92
2024-05-09T01:00:41.481Z,19.92
2024-05-09T01:01:41.416Z,19.94
2024-05-09T01:02:42.466Z,19.93
2024-05-09T01:03:44.333Z,19.94
2024-05-09T01:06:25.099Z,19.91
2024-05-09T01:07:45.489Z,19.93
2024-05-09T01:08:46.376Z,19.93
2024-05-09T01:09:47.446Z,19.94
2024-05-09T01:10:48.912Z,19.94
2024-05-09T01:11:49.564Z,19.94
2024-05-09T01:12:50.384Z,19.93
2024-05-09T01:13:52.529Z,19.93
2024-05-09T01:14:53.429Z,19.92
2024-05-09T01:15:54.389Z,19.92
2024-05-09T01:16:55.451Z,19.91
2024-05-09T01:17:56.914Z,19.93
2024-05-09T01:18:57.484Z,19.93
2024-05-09T01:19:58.432Z,19.93
2024-05-09T01:20:59.473Z,19.92
2024-05-09T01:22:00.424Z,19.91
2024-05-09T01:23:01.483Z,19.9
2024-05-09T01:24:02.435Z,19.91
2024-05-09T01:25:03.501Z,19.91
2024-05-09T01:26:04.379Z,19.91
2024-05-09T01:27:05.375Z,19.9
2024-05-09T01:28:06.414Z,19.89
2024-05-09T01:29:07.428Z,19.91
2024-05-09T01:30:09.619Z,19.9
2024-05-09T01:31:09.430Z,19.89
2024-05-09T01:32:10.497Z,19.89
2024-05-09T01:33:12.622Z,19.89
2024-05-09T01:34:12.455Z,19.89
2024-05-09T01:35:13.483Z,19.9
2024-05-09T01:36:14.405Z,19.91
2024-05-09T01:37:15.376Z,19.9
2024-05-09T01:38:16.451Z,19.91
2024-05-09T01:39:17.419Z,19.91
2024-05-09T01:40:24.796Z,19.92
2024-05-09T01:41:19.441Z,19.91
2024-05-09T01:42:20.447Z,19.89
2024-05-09T01:43:21.416Z,19.9
2024-05-09T01:44:22.586Z,19.89
2024-05-09T01:45:23.372Z,19.9
2024-05-09T01:46:24.383Z,19.9
2024-05-09T01:47:25.649Z,19.91
2024-05-09T01:48:26.549Z,19.9
2024-05-09T01:49:27.563Z,19.89
2024-05-09T01:50:37.847Z,19.91
2024-05-09T01:51:29.403Z,19.9
2024-05-09T01:52:30.396Z,19.9
2024-05-09T01:53:31.576Z,19.9
2024-05-09T01:54:32.446Z,19.89
2024-05-09T01:55:33.428Z,19.88
2024-05-09T01:56:34.394Z,19.88
2024-05-09T01:57:35.404Z,19.89
2024-05-09T01:58:36.429Z,19.89
2024-05-09T01:59:37.458Z,19.9
2024-05-09T02:00:41.513Z,19.9
2024-05-09T02:01:55.867Z,19.9
2024-05-09T02:02:40.524Z,19.9
2024-05-09T02:03:41.524Z,19.89
2024-05-09T02:04:42.588Z,19.9
2024-05-09T02:05:43.536Z,19.9
2024-05-09T02:06:44.408Z,19.9
2024-05-09T02:07:45.521Z,19.91
2024-05-09T02:08:46.447Z,19.92
2024-05-09T02:09:47.416Z,19.93
2024-05-09T02:10:48.913Z,19.94
2024-05-09T02:11:49.481Z,19.94
2024-05-09T02:12:50.411Z,19.95
2024-05-09T02:13:52.504Z,19.97
2024-05-09T02:14:53.389Z,19.96
2024-05-09T02:15:54.377Z,19.97
2024-05-09T02:16:55.415Z,19.97
2024-05-09T02:17:56.630Z,19.99
2024-05-09T02:18:57.493Z,20
2024-05-09T02:19:58.390Z,19.99
2024-05-09T02:20:59.482Z,19.99
2024-05-09T02:22:00.393Z,20
2024-05-09T02:23:01.460Z,19.98
2024-05-09T02:24:02.388Z,19.99
2024-05-09T02:25:03.435Z,20.01
2024-05-09T02:26:04.506Z,19.99
2024-05-09T02:27:05.449Z,19.98
2024-05-09T02:28:06.429Z,19.99
2024-05-09T02:29:07.440Z,19.99
2024-05-09T02:30:18.488Z,19.99
2024-05-09T02:31:09.424Z,20
2024-05-09T02:32:10.511Z,19.99
2024-05-09T02:33:13.431Z,19.98
2024-05-09T02:34:12.466Z,19.99
2024-05-09T02:35:13.451Z,19.99
2024-05-09T02:36:14.526Z,19.98
2024-05-09T02:37:15.442Z,19.98
2024-05-09T02:38:16.432Z,19.98
2024-05-09T02:39:17.424Z,19.97
2024-05-09T02:40:25.415Z,19.97
2024-05-09T02:41:19.431Z,19.97
2024-05-09T02:42:20.430Z,19.97
2024-05-09T02:43:21.452Z,19.95
2024-05-09T02:44:22.570Z,19.95
2024-05-09T02:45:23.447Z,19.95
2024-05-09T02:46:24.448Z,19.93
2024-05-09T02:47:25.528Z,19.94
2024-05-09T02:48:26.653Z,19.93
2024-05-09T02:49:27.532Z,19.92
2024-05-09T02:50:34.643Z,19.91
2024-05-09T02:51:29.420Z,19.9
2024-05-09T02:52:30.434Z,19.9
2024-05-09T02:53:31.642Z,19.9
2024-05-09T02:54:32.422Z,19.88
2024-05-09T02:55:33.446Z,19.87
2024-05-09T02:56:34.423Z,19.87
2024-05-09T02:57:35.416Z,19.87
2024-05-09T02:58:36.424Z,19.86
2024-05-09T02:59:37.469Z,19.86
2024-05-09T03:00:41.232Z,19.86
2024-05-09T03:01:39.520Z,19.85
2024-05-09T03:02:40.508Z,19.84
2024-05-09T03:03:41.598Z,19.84
2024-05-09T03:04:42.459Z,19.84
2024-05-09T03:05:43.824Z,19.84
2024-05-09T03:06:44.405Z,19.83
2024-05-09T03:07:45.502Z,19.83
2024-05-09T03:08:46.408Z,19.83
2024-05-09T03:09:47.376Z,19.83
2024-05-09T03:10:48.450Z,19.83
2024-05-09T03:11:49.573Z,19.83
2024-05-09T03:12:50.369Z,19.83
2024-05-09T03:13:52.449Z,19.84
2024-05-09T03:14:53.383Z,19.82
2024-05-09T03:15:54.385Z,19.81
2024-05-09T03:16:55.414Z,19.81
2024-05-09T03:17:56.541Z,19.81
2024-05-09T03:18:57.543Z,19.81
2024-05-09T03:19:58.491Z,19.82
2024-05-09T03:20:59.564Z,19.82
2024-05-09T03:22:00.437Z,19.81
2024-05-09T03:23:01.502Z,19.8
2024-05-09T03:24:02.449Z,19.8
2024-05-09T03:25:03.428Z,19.8
2024-05-09T03:26:04.374Z,19.79
2024-05-09T03:27:05.408Z,19.78
2024-05-09T03:28:06.472Z,19.79
2024-05-09T03:29:07.462Z,19.78
2024-05-09T03:30:09.964Z,19.78
2024-05-09T03:31:09.422Z,19.79
2024-05-09T03:32:10.565Z,19.77
2024-05-09T03:33:11.769Z,19.78
2024-05-09T03:34:12.540Z,19.77
2024-05-09T03:35:13.541Z,19.77
2024-05-09T03:36:14.414Z,19.77
2024-05-09T03:37:15.442Z,19.77
2024-05-09T03:38:16.634Z,19.78
2024-05-09T03:39:17.430Z,19.77
2024-05-09T03:40:23.514Z,19.76
2024-05-09T03:41:19.518Z,19.77
2024-05-09T03:42:20.409Z,19.76
2024-05-09T03:43:21.429Z,19.75
2024-05-09T03:44:22.436Z,19.75
2024-05-09T03:45:23.437Z,19.75
2024-05-09T03:46:24.383Z,19.74
2024-05-09T03:47:25.634Z,19.77
2024-05-09T03:48:26.567Z,19.77
2024-05-09T03:49:27.609Z,19.77
2024-05-09T03:50:33.851Z,19.77
2024-05-09T03:51:29.386Z,19.77
2024-05-09T03:52:30.458Z,19.76
2024-05-09T03:53:31.533Z,19.75
2024-05-09T03:54:32.416Z,19.76
2024-05-09T03:55:33.406Z,19.75
2024-05-09T03:56:34.547Z,19.76
2024-05-09T03:57:35.525Z,19.76
2024-05-09T03:58:36.413Z,19.76
2024-05-09T03:59:37.421Z,19.76
2024-05-09T04:00:40.054Z,19.75
2024-05-09T04:01:39.537Z,19.76
2024-05-09T04:02:40.505Z,19.76
2024-05-09T04:03:41.628Z,19.76
2024-05-09T04:04:42.469Z,19.76
2024-05-09T04:05:44.188Z,19.76
2024-05-09T04:06:44.382Z,19.75
2024-05-09T04:07:45.490Z,19.75
2024-05-09T04:08:46.523Z,19.75
2024-05-09T04:09:47.411Z,19.75
2024-05-09T04:10:48.500Z,19.76
2024-05-09T04:11:49.511Z,19.75
2024-05-09T04:12:50.382Z,19.74
2024-05-09T04:13:52.543Z,19.76
2024-05-09T04:14:53.437Z,19.74
2024-05-09T04:15:54.438Z,19.74
2024-05-09T04:16:55.447Z,19.75
2024-05-09T04:17:56.753Z,19.75
2024-05-09T04:18:57.599Z,19.75
2024-05-09T04:19:58.464Z,19.76
2024-05-09T04:20:59.650Z,19.76
2024-05-09T04:22:00.431Z,19.76
2024-05-09T04:23:01.503Z,19.77
2024-05-09T04:24:02.423Z,19.76
2024-05-09T04:25:03.434Z,19.77
2024-05-09T04:26:04.520Z,19.78
2024-05-09T04:27:05.422Z,19.78
2024-05-09T04:28:06.433Z,19.78
2024-05-09T04:29:07.495Z,19.79
2024-05-09T04:30:15.283Z,19.8
2024-05-09T04:31:09.386Z,19.79
2024-05-09T04:32:10.447Z,19.8
2024-05-09T04:33:13.413Z,19.81
2024-05-09T04:34:12.717Z,19.81
2024-05-09T04:35:13.490Z,19.81
2024-05-09T04:36:14.399Z,19.84
2024-05-09T04:37:15.418Z,19.85
2024-05-09T04:38:16.510Z,19.86
2024-05-09T04:39:17.429Z,19.85
2024-05-09T04:40:27.693Z,19.84
2024-05-09T04:41:19.423Z,19.86
2024-05-09T04:42:20.446Z,19.87
2024-05-09T04:43:21.446Z,19.88
2024-05-09T04:44:22.469Z,19.88
2024-05-09T04:45:23.386Z,19.89
2024-05-09T04:46:24.434Z,19.91
2024-05-09T04:47:25.600Z,19.93
2024-05-09T04:48:26.616Z,19.94
2024-05-09T04:49:27.612Z,19.96
2024-05-09T04:50:35.983Z,19.95
2024-05-09T04:51:29.401Z,19.98
2024-05-09T04:52:30.397Z,19.98
2024-05-09T04:53:31.523Z,19.99
2024-05-09T04:54:36.407Z,20
2024-05-09T04:55:33.433Z,20
2024-05-09T04:56:34.465Z,20.02
2024-05-09T04:57:35.412Z,20.02
2024-05-09T04:58:36.443Z,20.05
2024-05-09T04:59:37.555Z,20.05
2024-05-09T05:00:39.615Z,20.06
2024-05-09T05:01:39.418Z,20.06
2024-05-09T05:02:40.548Z,20.07
2024-05-09T05:03:41.634Z,20.08
2024-05-09T05:04:42.724Z,20.08
2024-05-09T05:05:44.733Z,20.09
2024-05-09T05:06:44.438Z,20.09
2024-05-09T05:07:45.434Z,20.11
2024-05-09T05:08:46.396Z,20.1
2024-05-09T05:09:47.401Z,20.11
2024-05-09T05:10:49.360Z,20.11
2024-05-09T05:11:49.567Z,20.13
2024-05-09T05:12:50.430Z,20.13
2024-05-09T05:13:52.471Z,20.16
2024-05-09T05:14:53.368Z,20.14
2024-05-09T05:15:54.384Z,20.16
2024-05-09T05:16:55.455Z,20.16
2024-05-09T05:17:56.516Z,20.16
2024-05-09T05:18:57.466Z,20.16
2024-05-09T05:19:58.525Z,20.17
2024-05-09T05:20:59.565Z,20.17
2024-05-09T05:22:00.393Z,20.19
2024-05-09T05:23:01.523Z,20.19
2024-05-09T05:24:02.437Z,20.2
2024-05-09T05:25:03.428Z,20.2
2024-05-09T05:26:04.481Z,20.22
2024-05-09T05:27:05.381Z,20.2
2024-05-09T05:28:06.383Z,20.17
2024-05-09T05:29:07.491Z,20.14
2024-05-09T05:30:14.672Z,20.14
2024-05-09T05:31:09.543Z,20.13
2024-05-09T05:32:10.543Z,20.12
2024-05-09T05:33:11.620Z,20.13
2024-05-09T05:34:12.470Z,20.11
2024-05-09T05:35:13.505Z,20.1
2024-05-09T05:36:14.461Z,20.09
2024-05-09T05:37:15.422Z,20.1
2024-05-09T05:38:16.586Z,20.09
2024-05-09T05:39:17.387Z,20.11
2024-05-09T05:40:28.023Z,20.15
2024-05-09T05:41:19.522Z,20.19
2024-05-09T05:42:20.410Z,20.19
2024-05-09T05:43:21.446Z,20.13
2024-05-09T05:44:22.490Z,20.12
2024-05-09T05:45:23.455Z,20.08
2024-05-09T05:46:24.424Z,20.08
2024-05-09T05:47:25.557Z,20.04
2024-05-09T05:48:26.586Z,20.04
2024-05-09T05:49:27.554Z,20.03
2024-05-09T05:50:35.432Z,20.03
2024-05-09T05:51:29.450Z,20.06
2024-05-09T05:52:30.397Z,20.05
2024-05-09T05:53:31.517Z,20.04
2024-05-09T05:54:32.442Z,20.07
2024-05-09T05:55:33.435Z,20.09
2024-05-09T05:56:34.503Z,20.1
2024-05-09T05:57:35.440Z,20.12
2024-05-09T05:58:36.424Z,20.15
2024-05-09T05:59:37.415Z,20.17
2024-05-09T06:00:40.242Z,20.15
2024-05-09T06:01:39.452Z,20.16
2024-05-09T06:02:40.729Z,20.2
2024-05-09T06:03:41.664Z,20.18
2024-05-09T06:04:42.529Z,20.2
2024-05-09T06:05:44.063Z,20.21
2024-05-09T06:06:44.544Z,20.19
2024-05-09T06:07:45.510Z,20.2
2024-05-09T06:08:46.538Z,20.21
2024-05-09T06:09:48.255Z,20.22
2024-05-09T06:10:48.595Z,20.2
2024-05-09T06:11:49.542Z,20.21
2024-05-09T06:12:50.428Z,20.22
2024-05-09T06:13:52.630Z,20.24
2024-05-09T06:14:53.444Z,20.23
2024-05-09T06:15:54.376Z,20.23
2024-05-09T06:16:58.050Z,20.24
2024-05-09T06:17:56.608Z,20.23
2024-05-09T06:18:57.536Z,20.25
2024-05-09T06:19:58.502Z,20.24
2024-05-09T06:20:59.452Z,20.25
2024-05-09T06:22:00.458Z,20.25
2024-05-09T06:23:01.572Z,20.26
2024-05-09T06:24:05.339Z,20.25
2024-05-09T06:25:03.409Z,20.28
2024-05-09T06:26:04.455Z,20.28
2024-05-09T06:27:05.448Z,20.26
2024-05-09T06:28:06.549Z,20.3
2024-05-09T06:29:07.479Z,20.3
2024-05-09T06:31:09.437Z,20.31
2024-05-09T06:32:10.470Z,20.31
2024-05-09T06:33:13.398Z,20.33
2024-05-09T06:34:12.744Z,20.34
2024-05-09T06:35:13.530Z,20.35
2024-05-09T06:36:14.386Z,20.35
2024-05-09T06:37:15.402Z,20.37
2024-05-09T06:38:16.478Z,20.38
2024-05-09T06:39:17.408Z,20.36
2024-05-09T06:40:25.460Z,20.42
2024-05-09T06:41:19.431Z,20.43
2024-05-09T06:42:20.358Z,20.47
2024-05-09T06:43:21.473Z,20.47
2024-05-09T06:44:22.537Z,20.5
2024-05-09T06:45:23.439Z,20.49
2024-05-09T06:46:24.438Z,20.47
2024-05-09T06:47:25.544Z,20.49
2024-05-09T06:48:26.600Z,20.5
2024-05-09T06:49:27.568Z,20.52
2024-05-09T06:50:35.640Z,20.53
2024-05-09T06:51:29.393Z,20.56
2024-05-09T06:52:30.470Z,20.54
2024-05-09T06:53:31.552Z,20.52
2024-05-09T06:54:32.434Z,20.57
2024-05-09T06:55:33.444Z,20.58
2024-05-09T06:56:34.467Z,20.57
2024-05-09T06:57:36.279Z,20.59
2024-05-09T06:58:36.422Z,20.59
2024-05-09T06:59:37.474Z,20.59
2024-05-09T07:00:40.832Z,20.6
2024-05-09T07:01:39.490Z,20.62
2024-05-09T07:02:40.492Z,20.6
2024-05-09T07:03:41.444Z,20.59
2024-05-09T07:04:42.502Z,20.61
2024-05-09T07:05:43.579Z,20.64
2024-05-09T07:06:44.428Z,20.62
2024-05-09T07:07:45.469Z,20.64
2024-05-09T07:08:48.016Z,20.64
2024-05-09T07:09:47.431Z,20.66
2024-05-09T07:10:48.632Z,20.66
2024-05-09T07:11:49.719Z,20.65
2024-05-09T07:12:50.431Z,20.68
2024-05-09T07:13:52.671Z,20.71
2024-05-09T07:14:53.474Z,20.69
2024-05-09T07:15:54.411Z,20.7
2024-05-09T07:16:55.559Z,20.69
2024-05-09T07:17:56.934Z,20.69
2024-05-09T07:18:57.548Z,20.71
2024-05-09T07:19:58.412Z,20.71
2024-05-09T07:20:59.403Z,20.72
2024-05-09T07:22:00.425Z,20.74
2024-05-09T07:23:01.682Z,20.74
2024-05-09T07:24:02.436Z,20.75
2024-05-09T07:25:03.437Z,20.74
2024-05-09T07:26:04.494Z,20.75
2024-05-09T07:27:05.413Z,20.75
2024-05-09T07:28:06.381Z,20.76
2024-05-09T07:29:07.520Z,20.78
2024-05-09T07:30:09.439Z,20.75
2024-05-09T07:31:09.430Z,20.8
2024-05-09T07:32:10.440Z,20.8
2024-05-09T07:33:11.576Z,20.77
2024-05-09T07:34:12.645Z,20.77
2024-05-09T07:35:13.443Z,20.77
2024-05-09T07:36:14.539Z,20.76
2024-05-09T07:37:15.447Z,20.79
2024-05-09T07:38:16.493Z,20.8
2024-05-09T07:39:17.447Z,20.79
2024-05-09T07:40:28.202Z,20.82
2024-05-09T07:41:19.492Z,20.81
2024-05-09T07:42:20.442Z,20.82
2024-05-09T07:43:21.403Z,20.81
2024-05-09T07:44:22.522Z,20.82
2024-05-09T07:45:40.572Z,20.82
2024-05-09T07:47:20.214Z,20.84
2024-05-09T07:48:56.925Z,20.85
2024-05-09T07:50:00.366Z,20.84
2024-05-09T07:53:08.507Z,20.85
2024-05-09T07:53:32.625Z,20.85
2024-05-09T07:53:40.525Z,20.84
2024-05-09T07:54:32.653Z,20.89
2024-05-09T07:55:33.548Z,20.87
2024-05-09T07:56:34.810Z,20.85
2024-05-09T07:57:35.524Z,20.87
2024-05-09T07:58:36.389Z,20.86
2024-05-09T07:59:38.015Z,20.88
2024-05-09T08:00:38.620Z,20.91
2024-05-09T08:01:39.601Z,20.88
2024-05-09T08:02:40.489Z,20.88
2024-05-09T08:03:41.634Z,20.89
2024-05-09T08:04:42.641Z,20.87
2024-05-09T08:05:43.480Z,20.86
2024-05-09T08:06:44.464Z,20.85
2024-05-09T08:07:45.462Z,20.86
2024-05-09T08:08:46.424Z,20.88
2024-05-09T08:09:47.435Z,20.88
2024-05-09T08:10:48.520Z,20.9
2024-05-09T08:11:49.525Z,20.87
2024-05-09T08:12:50.496Z,20.84
2024-05-09T08:13:52.668Z,20.9
2024-05-09T08:14:53.430Z,20.88
2024-05-09T08:15:54.392Z,20.9
2024-05-09T08:16:55.492Z,20.87
2024-05-09T08:17:56.768Z,20.89
2024-05-09T08:18:57.544Z,20.86
2024-05-09T08:19:58.384Z,20.88
2024-05-09T08:20:59.450Z,20.88
2024-05-09T08:22:00.481Z,20.89
2024-05-09T08:23:01.436Z,20.9
2024-05-09T08:24:02.411Z,20.91
2024-05-09T08:25:03.464Z,20.89
2024-05-09T08:26:04.392Z,20.88
2024-05-09T08:27:05.402Z,20.9
2024-05-09T08:28:06.526Z,20.87
2024-05-09T08:29:07.403Z,20.9
2024-05-09T08:30:15.291Z,20.9
2024-05-09T08:31:09.487Z,20.91
2024-05-09T08:32:10.487Z,20.89
2024-05-09T08:33:11.532Z,20.9
2024-05-09T08:34:12.646Z,20.89
2024-05-09T08:35:13.385Z,20.9
2024-05-09T08:36:14.458Z,20.92
2024-05-09T08:37:21.195Z,20.9
2024-05-09T08:38:16.456Z,20.91
2024-05-09T08:39:17.411Z,20.91
2024-05-09T08:40:24.237Z,20.89
2024-05-09T08:41:19.411Z,20.9
2024-05-09T08:42:20.422Z,20.85
2024-05-09T08:43:21.519Z,20.86
2024-05-09T08:44:22.408Z,20.86
2024-05-09T08:45:23.415Z,20.87
2024-05-09T08:46:24.552Z,20.89
2024-05-09T08:47:25.457Z,20.86
2024-05-09T08:48:26.684Z,20.89
2024-05-09T08:49:27.494Z,20.85
2024-05-09T08:50:35.996Z,20.88
2024-05-09T08:51:29.475Z,20.85
2024-05-09T08:52:30.455Z,20.86
2024-05-09T08:53:31.385Z,20.88
2024-05-09T08:54:32.481Z,20.89
2024-05-09T08:55:33.461Z,20.89
2024-05-09T08:56:34.373Z,20.86
2024-05-09T08:57:35.450Z,20.84
2024-05-09T08:58:36.404Z,20.86
2024-05-09T08:59:37.372Z,20.89
2024-05-09T09:00:38.492Z,20.88
2024-05-09T09:01:40.909Z,20.89
2024-05-09T09:02:40.575Z,20.89
2024-05-09T09:03:41.708Z,20.86
2024-05-09T09:04:42.509Z,20.82
2024-05-09T09:05:43.496Z,20.77
2024-05-09T09:06:44.636Z,20.85
2024-05-09T09:07:45.527Z,20.89
2024-05-09T09:08:46.427Z,20.82
2024-05-09T09:09:47.461Z,20.81
2024-05-09T09:10:48.567Z,20.8
2024-05-09T09:11:49.388Z,20.81
2024-05-09T09:12:50.435Z,20.78
2024-05-09T09:13:52.587Z,20.78
2024-05-09T09:14:53.450Z,20.73
2024-05-09T09:15:54.413Z,20.71
2024-05-09T09:16:55.449Z,20.72
2024-05-09T09:17:56.455Z,20.71
2024-05-09T09:18:57.877Z,20.7
2024-05-09T09:19:58.476Z,20.68
2024-05-09T09:20:59.390Z,20.72
2024-05-09T09:22:00.430Z,20.71
2024-05-09T09:23:01.423Z,20.7
2024-05-09T09:24:02.402Z,20.72
2024-05-09T09:25:03.491Z,20.74
2024-05-09T09:26:04.497Z,20.74
2024-05-09T09:27:05.445Z,20.73
2024-05-09T09:28:06.447Z,20.76
2024-05-09T09:29:07.403Z,20.79
2024-05-09T09:30:18.475Z,20.76
2024-05-09T09:31:09.418Z,20.81
2024-05-09T09:32:10.395Z,20.8
2024-05-09T09:33:11.878Z,20.81
2024-05-09T09:34:12.633Z,20.81
2024-05-09T09:35:13.464Z,20.81
2024-05-09T09:36:14.445Z,20.8
2024-05-09T09:37:15.466Z,20.82
2024-05-09T09:38:16.411Z,20.84
2024-05-09T09:39:17.432Z,20.81
2024-05-09T09:40:18.629Z,20.85
2024-05-09T09:41:19.436Z,20.83
2024-05-09T09:42:21.999Z,20.91
2024-05-09T09:43:23.378Z,20.84
2024-05-09T09:44:23.983Z,20.82
2024-05-09T09:45:25.000Z,20.82
2024-05-09T09:46:26.117Z,20.81
2024-05-09T09:47:27.157Z,20.78
2024-05-09T09:48:28.179Z,20.85
2024-05-09T09:49:29.051Z,20.8
2024-05-09T09:50:34.428Z,20.8
2024-05-09T09:51:31.029Z,20.82
2024-05-09T09:52:33.046Z,20.8
2024-05-09T09:53:33.945Z,20.79
2024-05-09T09:54:35.013Z,20.8
2024-05-09T09:55:35.982Z,20.81
2024-05-09T09:56:36.989Z,20.8
2024-05-09T09:57:37.986Z,20.81
2024-05-09T09:58:38.995Z,20.82
2024-05-09T09:59:39.991Z,20.85
2024-05-09T10:00:41.060Z,20.9
2024-05-09T10:01:42.110Z,20.89
2024-05-09T10:02:42.976Z,20.87
2024-05-09T10:03:44.107Z,20.88
2024-05-09T10:04:45.088Z,20.88
2024-05-09T10:05:47.423Z,20.93
2024-05-09T10:06:47.006Z,20.9
2024-05-09T10:07:47.941Z,20.92
2024-05-09T10:08:48.984Z,20.89
2024-05-09T10:09:49.965Z,20.92
2024-05-09T10:10:51.171Z,20.93
2024-05-09T10:11:54.465Z,20.94
2024-05-09T10:12:53.046Z,20.89
2024-05-09T10:13:53.979Z,20.99
2024-05-09T10:14:54.933Z,20.94
2024-05-09T10:15:56.016Z,20.93
2024-05-09T10:16:56.923Z,21.01
2024-05-09T10:17:58.139Z,21
2024-05-09T10:18:59.136Z,20.98
2024-05-09T10:20:00.032Z,21.01
2024-05-09T10:21:01.020Z,20.99
2024-05-09T10:22:01.960Z,20.97
2024-05-09T10:23:03.018Z,21.01
2024-05-09T10:24:04.014Z,20.98
2024-05-09T10:25:05.364Z,20.99
2024-05-09T10:26:06.431Z,20.96
2024-05-09T10:27:07.004Z,20.96
2024-05-09T10:28:08.051Z,20.96
2024-05-09T10:29:08.963Z,20.94
2024-05-09T10:30:14.676Z,21.01
2024-05-09T10:31:11.301Z,21.06
2024-05-09T10:32:11.941Z,21.07
2024-05-09T10:33:13.186Z,21.02
2024-05-09T10:34:14.145Z,20.99
2024-05-09T10:35:15.047Z,20.96
2024-05-09T10:36:16.109Z,20.94
2024-05-09T10:37:17.209Z,20.93
2024-05-09T10:38:17.978Z,20.94
2024-05-09T10:39:18.930Z,20.94
2024-05-09T10:40:26.015Z,20.94
2024-05-09T10:41:20.998Z,20.94
2024-05-09T10:42:21.974Z,20.93
2024-05-09T10:43:23.135Z,20.93
2024-05-09T10:44:23.979Z,20.91
2024-05-09T10:45:24.981Z,20.92
2024-05-09T10:46:26.023Z,20.92
2024-05-09T10:47:27.095Z,20.9
2024-05-09T10:48:28.221Z,20.89
2024-05-09T10:49:29.004Z,20.87
2024-05-09T10:50:34.087Z,20.89
2024-05-09T10:51:30.998Z,20.88
2024-05-09T10:52:33.086Z,20.89
2024-05-09T10:53:34.003Z,20.86
2024-05-09T10:54:35.031Z,20.86
2024-05-09T10:55:35.943Z,20.85
2024-05-09T10:56:36.987Z,20.83
2024-05-09T10:57:38.098Z,20.84
2024-05-09T10:58:38.995Z,20.85
2024-05-09T10:59:39.995Z,20.81
2024-05-09T11:00:41.024Z,20.83
2024-05-09T11:01:42.061Z,20.81
2024-05-09T11:02:43.360Z,20.8
2024-05-09T11:03:44.241Z,20.79
2024-05-09T11:04:45.180Z,20.78
2024-05-09T11:05:46.012Z,20.77
2024-05-09T11:06:47.021Z,20.78
2024-05-09T11:07:47.987Z,20.78
2024-05-09T11:08:48.949Z,20.77
2024-05-09T11:09:50.006Z,20.77
2024-05-09T11:10:51.046Z,20.78
2024-05-09T11:11:52.026Z,20.77
2024-05-09T11:12:53.079Z,20.76
2024-05-09T11:13:53.967Z,20.74
2024-05-09T11:14:54.944Z,20.76
2024-05-09T11:15:56.013Z,20.76
2024-05-09T11:16:56.936Z,20.76
2024-05-09T11:17:58.062Z,20.75
2024-05-09T11:18:59.493Z,20.74
2024-05-09T11:20:00.065Z,20.75
2024-05-09T11:21:00.942Z,20.73
2024-05-09T11:22:02.203Z,20.73
2024-05-09T11:23:02.969Z,20.74
2024-05-09T11:24:05.392Z,20.73
2024-05-09T11:25:05.006Z,20.72
2024-05-09T11:26:05.973Z,20.73
2024-05-09T11:27:06.991Z,20.72
2024-05-09T11:28:08.049Z,20.71
2024-05-09T11:29:08.954Z,20.73
2024-05-09T11:30:17.223Z,20.72
2024-05-09T11:31:11.250Z,20.7
2024-05-09T11:32:12.012Z,20.69
2024-05-09T11:33:13.005Z,20.7
2024-05-09T11:34:14.010Z,20.7
2024-05-09T11:35:14.944Z,20.69
2024-05-09T11:36:15.937Z,20.7
2024-05-09T11:37:17.046Z,20.7
2024-05-09T11:38:18.059Z,20.7
2024-05-09T11:39:18.955Z,20.7
2024-05-09T11:40:25.430Z,20.69
2024-05-09T11:41:20.963Z,20.7
2024-05-09T11:42:21.999Z,20.69
2024-05-09T11:43:23.261Z,20.68
2024-05-09T11:44:24.004Z,20.69
2024-05-09T11:45:24.993Z,20.69
2024-05-09T11:46:26.075Z,20.69
2024-05-09T11:47:27.109Z,20.69
2024-05-09T11:48:28.240Z,20.68
2024-05-09T11:49:29.094Z,20.69
2024-05-09T11:50:34.939Z,20.68
2024-05-09T11:51:31.001Z,20.69
2024-05-09T11:52:33.039Z,20.72
2024-05-09T11:53:33.992Z,20.68
2024-05-09T11:54:34.983Z,20.7
2024-05-09T11:55:36.041Z,20.69
2024-05-09T11:56:36.996Z,20.69
2024-05-09T11:57:38.055Z,20.69
2024-05-09T11:58:38.994Z,20.68
2024-05-09T11:59:40.009Z,20.68
2024-05-09T12:00:41.065Z,20.69
2024-05-09T12:01:42.079Z,20.68
2024-05-09T12:02:42.955Z,20.68
2024-05-09T12:03:44.177Z,20.67
2024-05-09T12:04:45.390Z,20.67
2024-05-09T12:05:46.163Z,20.68
2024-05-09T12:06:47.038Z,20.68
2024-05-09T12:07:48.005Z,20.68
2024-05-09T12:08:48.921Z,20.67
2024-05-09T12:09:50.071Z,20.67
2024-05-09T12:10:51.245Z,20.71
2024-05-09T12:11:52.008Z,20.7
2024-05-09T12:12:53.008Z,20.68
2024-05-09T12:13:54.003Z,20.72
2024-05-09T12:14:54.940Z,20.73
2024-05-09T12:15:56.058Z,20.71
2024-05-09T12:16:57.004Z,20.73
2024-05-09T12:18:00.225Z,20.73
2024-05-09T12:18:59.074Z,20.73
2024-05-09T12:19:59.989Z,20.73
2024-05-09T12:21:00.971Z,20.74
2024-05-09T12:22:01.958Z,20.73
2024-05-09T12:23:02.998Z,20.74
2024-05-09T12:24:03.998Z,20.73
2024-05-09T12:25:05.074Z,20.73
2024-05-09T12:26:05.978Z,20.72
2024-05-09T12:27:06.980Z,20.73
2024-05-09T12:28:08.223Z,20.74
2024-05-09T12:29:08.971Z,20.73
2024-05-09T12:30:11.569Z,20.72
2024-05-09T12:31:11.063Z,20.72
2024-05-09T12:32:12.055Z,20.72
2024-05-09T12:33:13.626Z,20.71
2024-05-09T12:34:14.304Z,20.7
2024-05-09T12:35:15.062Z,20.72
2024-05-09T12:36:15.971Z,20.71
2024-05-09T12:37:17.104Z,20.72
2024-05-09T12:38:17.949Z,20.72
2024-05-09T12:39:18.988Z,20.69
2024-05-09T12:40:30.656Z,20.67
2024-05-09T12:41:20.923Z,20.66
2024-05-09T12:42:27.272Z,20.67
2024-05-09T12:43:23.237Z,20.69
2024-05-09T12:44:24.064Z,20.71
2024-05-09T12:45:24.985Z,20.72
2024-05-09T12:46:26.068Z,20.71
2024-05-09T12:47:27.080Z,20.71
2024-05-09T12:48:28.343Z,20.72
2024-05-09T12:49:29.219Z,20.7
2024-05-09T12:50:33.185Z,20.7
2024-05-09T12:51:31.069Z,20.7
2024-05-09T12:52:33.040Z,20.72
2024-05-09T12:53:33.991Z,20.71
2024-05-09T12:54:35.002Z,20.71
2024-05-09T12:55:44.082Z,20.71
2024-05-09T12:56:37.021Z,20.71
2024-05-09T12:57:38.050Z,20.7
2024-05-09T12:58:38.992Z,20.7
2024-05-09T12:59:39.981Z,20.68
2024-05-09T13:00:41.051Z,20.68
2024-05-09T13:01:42.009Z,20.7
2024-05-09T13:02:43.006Z,20.69
2024-05-09T13:03:44.142Z,20.69
2024-05-09T13:04:45.056Z,20.69
2024-05-09T13:05:46.328Z,20.68
2024-05-09T13:06:46.990Z,20.67
2024-05-09T13:07:47.993Z,20.68
2024-05-09T13:08:48.980Z,20.68
2024-05-09T13:09:50.021Z,20.68
2024-05-09T13:10:51.046Z,20.67
2024-05-09T13:11:51.999Z,20.67
2024-05-09T13:12:53.089Z,20.68
2024-05-09T13:13:53.976Z,20.68
2024-05-09T13:14:54.985Z,20.67